CheckWX is a tool to help pilots better visualize weather data.  It is not intended as a substitute for an official pre-flight weather briefing.

08:57:37 UTC

KQEY METAR
Geumsan Rws
Geumsan Rws, South Korea
Current

13 hours ago

KQEY 051950Z AUTO 19001KT 9999 CLR M01/M04 A2991 RMK A02 TSNO
Observed
Apr-5 @ 19:50 UTC
Wind
  • 190° at 1 KTS
Visibility
10,000+ meters
Flight Rules
VFR
Cloud Levels
  • Clear skies
Temperature
-1°C / 30°F
Dewpoint
-4°C / 25°F
Humidity
80%
Altimeter
29.91" Hg
Pressure
1012.92 hPa
Previous

13 hours ago

KQEY 051930Z AUTO 24002KT 9999 CLR M01/M04 A2990 RMK A02 TSNO
Observed
Apr-5 @ 19:30 UTC
Wind
  • 240° at 2 KTS
Visibility
10,000+ meters
Flight Rules
VFR
Cloud Levels
  • Clear skies
Temperature
-1°C / 30°F
Dewpoint
-4°C / 25°F
Humidity
80%
Altimeter
29.9" Hg
Pressure
1012.52 hPa
Previous

14 hours ago

KQEY 051920Z AUTO 21001KT 9999 CLR M01/M04 A2990 RMK A02 TSNO
Observed
Apr-5 @ 19:20 UTC
Wind
  • 210° at 1 KTS
Visibility
10,000+ meters
Flight Rules
VFR
Cloud Levels
  • Clear skies
Temperature
-1°C / 30°F
Dewpoint
-4°C / 25°F
Humidity
80%
Altimeter
29.9" Hg
Pressure
1012.52 hPa